Time,TemperatureF,DewpointF,PressureIn,WindDirection,WindDirectionDegrees,WindSpeedMPH,WindSpeedGustMPH,Humidity,HourlyPrecipIn,Conditions,Clouds,dailyrainin,SoftwareType,DateUTC
2013-04-11 00:15:00,34.0,23.1,29.77,NE,34,0.0,0.0,64,0.00,,,0.00,Wunderground v.1.12,2013-04-11 04:15:00,
2013-04-11 00:45:00,33.1,21.5,29.77,NE,34,0.0,0.0,62,0.00,,,0.00,Wunderground v.1.12,2013-04-11 04:45:00,
2013-04-11 01:15:00,31.7,19.8,29.76,NE,34,0.0,0.0,61,0.00,,,0.00,Wunderground v.1.12,2013-04-11 05:15:00,
2013-04-11 01:45:00,31.6,18.5,29.77,NE,34,0.0,0.0,58,0.00,,,0.00,Wunderground v.1.12,2013-04-11 05:45:00,
2013-04-11 02:15:00,31.0,17.9,29.78,NE,34,0.0,0.0,58,0.00,,,0.00,Wunderground v.1.12,2013-04-11 06:15:00,
2013-04-11 02:45:00,30.9,17.4,29.78,NE,34,0.0,0.0,57,0.00,,,0.00,Wunderground v.1.12,2013-04-11 06:45:00,
2013-04-11 03:15:00,31.2,17.3,29.78,NE,34,0.0,0.0,56,0.00,,,0.00,Wunderground v.1.12,2013-04-11 07:15:00,
2013-04-11 03:45:00,30.6,16.3,29.82,NE,45,0.0,8.0,55,0.00,,,0.00,Wunderground v.1.12,2013-04-11 07:45:00,
2013-04-11 04:15:00,30.3,16.0,29.84,NE,45,0.0,8.0,55,0.00,,,0.00,Wunderground v.1.12,2013-04-11 08:15:00,
2013-04-11 04:45:00,29.9,16.1,29.86,NE,45,0.0,5.0,56,0.00,,,0.00,Wunderground v.1.12,2013-04-11 08:45:00,
2013-04-11 05:15:00,29.7,15.9,29.87,NE,45,0.0,7.0,56,0.00,,,0.00,Wunderground v.1.12,2013-04-11 09:15:00,
2013-04-11 05:45:00,29.9,16.1,29.87,NE,45,1.0,9.0,56,0.00,,,0.00,Wunderground v.1.12,2013-04-11 09:45:00,
2013-04-11 06:15:00,30.1,16.3,29.86,NE,45,3.0,9.0,56,0.00,,,0.00,Wunderground v.1.12,2013-04-11 10:15:00,
2013-04-11 06:45:00,29.3,16.3,29.89,NE,45,1.0,8.0,58,0.00,,,0.00,Wunderground v.1.12,2013-04-11 10:45:00,
2013-04-11 07:15:00,30.1,15.9,29.89,NE,45,2.0,10.0,55,0.00,,,0.00,Wunderground v.1.12,2013-04-11 11:15:00,
2013-04-11 07:45:00,32.3,16.6,29.90,NE,45,3.0,11.0,52,0.00,,,0.00,Wunderground v.1.12,2013-04-11 11:45:00,
2013-04-11 08:15:00,34.1,17.4,29.90,NE,46,0.0,0.0,50,0.00,,,0.00,Wunderground v.1.12,2013-04-11 12:15:00,
2013-04-11 08:45:00,34.0,16.8,29.90,NNW,334,0.0,0.0,49,0.00,,,0.00,Wunderground v.1.12,2013-04-11 12:45:00,
2013-04-11 09:15:00,34.5,16.8,29.91,NE,37,0.0,0.0,48,0.00,,,0.00,Wunderground v.1.12,2013-04-11 13:15:00,
2013-04-11 09:45:00,34.0,14.9,29.92,NE,51,0.0,0.0,45,0.00,,,0.00,Wunderground v.1.12,2013-04-11 13:45:00,
2013-04-11 10:15:00,33.5,13.9,29.92,NE,52,7.0,7.0,44,0.00,,,0.00,Wunderground v.1.12,2013-04-11 14:15:00,
2013-04-11 10:45:00,34.2,14.0,29.93,NE,47,2.0,2.0,43,0.00,,,0.00,Wunderground v.1.12,2013-04-11 14:45:00,
2013-04-11 11:15:00,33.5,13.4,29.94,NE,45,0.0,0.0,43,0.00,,,0.00,Wunderground v.1.12,2013-04-11 15:15:00,
2013-04-11 11:45:00,33.5,13.4,29.96,NNE,33,8.0,8.0,43,0.00,,,0.00,Wunderground v.1.12,2013-04-11 15:45:00,
2013-04-11 12:15:00,34.1,13.9,29.96,NE,50,4.0,4.0,43,0.00,,,0.00,Wunderground v.1.12,2013-04-11 16:15:00,
2013-04-11 12:45:00,35.0,13.6,29.97,NE,51,0.0,0.0,41,0.00,,,0.00,Wunderground v.1.12,2013-04-11 16:45:00,
2013-04-11 13:15:00,35.7,14.3,29.96,NE,52,0.0,0.0,41,0.00,,,0.00,Wunderground v.1.12,2013-04-11 17:15:00,
2013-04-11 13:45:00,36.3,14.8,29.94,NE,55,0.0,0.0,41,0.00,,,0.00,Wunderground v.1.12,2013-04-11 17:45:00,
2013-04-11 14:15:00,37.7,16.1,29.93,NE,48,0.0,0.0,41,0.00,,,0.00,Wunderground v.1.12,2013-04-11 18:15:00,
2013-04-11 14:45:00,39.0,16.7,29.92,ENE,62,0.0,0.0,40,0.00,,,0.00,Wunderground v.1.12,2013-04-11 18:45:00,
2013-04-11 15:15:00,40.4,17.4,29.93,NE,44,0.0,0.0,39,0.00,,,0.00,Wunderground v.1.12,2013-04-11 19:15:00,
2013-04-11 15:45:00,38.8,17.1,29.93,NE,48,4.0,4.0,41,0.00,,,0.00,Wunderground v.1.12,2013-04-11 19:45:00,
2013-04-11 16:15:00,37.3,14.6,29.93,NE,50,6.0,6.0,39,0.00,,,0.00,Wunderground v.1.12,2013-04-11 20:15:00,
2013-04-11 16:45:00,37.1,16.1,29.92,NE,49,3.0,3.0,42,0.00,,,0.00,Wunderground v.1.12,2013-04-11 20:45:00,
2013-04-11 17:15:00,37.9,16.3,29.93,NE,49,0.0,0.0,41,0.00,,,0.00,Wunderground v.1.12,2013-04-11 21:15:00,
2013-04-11 17:45:00,38.3,16.6,29.91,NE,45,0.0,0.0,41,0.00,,,0.00,Wunderground v.1.12,2013-04-11 21:45:00,
2013-04-11 18:15:00,37.5,14.8,29.91,ENE,74,0.0,0.0,39,0.00,,,0.00,Wunderground v.1.12,2013-04-11 22:15:00,
2013-04-11 18:45:00,37.0,14.9,29.92,NE,44,0.0,0.0,40,0.00,,,0.00,Wunderground v.1.12,2013-04-11 22:45:00,
2013-04-11 19:15:00,35.7,15.9,29.92,NNE,25,0.0,0.0,44,0.00,,,0.00,Wunderground v.1.12,2013-04-11 23:15:00,
2013-04-11 19:45:00,35.0,15.3,29.94,ENE,73,0.0,0.0,44,0.00,,,0.00,Wunderground v.1.12,2013-04-11 23:45:00,
2013-04-11 20:15:00,34.6,15.4,29.93,NE,40,0.0,0.0,45,0.00,,,0.00,Wunderground v.1.12,2013-04-12 00:15:00,
2013-04-11 20:45:00,34.2,15.5,29.93,ENE,58,0.0,0.0,46,0.00,,,0.00,Wunderground v.1.12,2013-04-12 00:45:00,
2013-04-11 21:15:00,33.2,14.6,29.94,ENE,69,1.0,1.0,46,0.00,,,0.00,Wunderground v.1.12,2013-04-12 01:15:00,
2013-04-11 21:45:00,33.6,15.0,29.93,NNE,27,1.0,1.0,46,0.00,,,0.00,Wunderground v.1.12,2013-04-12 01:45:00,
2013-04-11 22:15:00,33.8,15.7,29.94,ENE,78,2.0,2.0,47,0.00,,,0.00,Wunderground v.1.12,2013-04-12 02:15:00,
2013-04-11 22:45:00,33.9,15.3,29.93,East,90,0.0,0.0,46,0.00,,,0.00,Wunderground v.1.12,2013-04-12 02:45:00,
2013-04-11 23:15:00,34.0,15.9,29.95,ENE,60,3.0,3.0,47,0.00,,,0.00,Wunderground v.1.12,2013-04-12 03:15:00,
2013-04-11 23:45:00,33.9,16.7,29.94,ENE,77,0.0,9.0,49,0.00,,,0.00,Wunderground v.1.12,2013-04-12 03:45:00,